No particular awareness of the weather is required.    There are no Weather-warnings


Meteo18 Weather Cam more information Meteo18 Weather Cam


Thunder radar more information blitzortung!


Rain radar more information rain snow radar


Visit our other weather sites:

Template documentation
and downloads

And another site



Weather Underground History page Text

Daily Summary for February 18, 2018 Units:  Metric    English   Both
« Previous Day
Next Day »
Daily Weekly Monthly Yearly Custom
  High: Low: Average:
Temperature: -17.8 °C -18.2 °C -16.7 °C
Dew Point: -17.8 °C -18.4 °C -17 °C
Humidity: Humidity % 94 % 97 %
Wind Speed: 0 km/h 0 km/h 1 km/h
Wind Gust: 0 km/h - -
Wind:- - SSW
Pressure: 0 hPa 34591.4 hPa -
Precipitation: 7.62 mm    
Historical Graphs
 
 
Tabular Data for February 18, 2018
Time Temperature Dew Point Pressure Wind Wind Speed Wind Gust Humidity Rainfall Rate (Hourly)
-17.8 °C -17.8 °C 0 hPa Calm     Humidity % 0 mm
00:00 -16.1 °C -16.3 °C 34726.8 hPa Calm   2.6 km/h 97 % 0 mm
00:07 -16.1 °C -16.3 °C 34726.8 hPa Calm   2.6 km/h 97 % 0 mm
00:13 -16.1 °C -16.3 °C 34726.8 hPa Calm     97 % 0 mm
00:19 -16 °C -16.2 °C 34726.8 hPa Calm     97 % 0 mm
00:25 -16 °C -16.2 °C 34726.8 hPa Calm     97 % 0 mm
00:31 -16.1 °C -16.3 °C 34726.8 hPa Calm     97 % 0 mm
00:37 -16.2 °C -16.4 °C 34726.8 hPa Calm   2.6 km/h 97 % 0 mm
00:43 -16.3 °C -16.7 °C 34726.8 hPa Calm   2.6 km/h 96 % 0 mm
00:49 -16.5 °C -16.8 °C 34726.8 hPa Calm   2.6 km/h 96 % 0 mm
00:55 -16.5 °C -16.7 °C 34726.8 hPa Calm   2.6 km/h 97 % 0 mm
01:01 -16.6 °C -16.8 °C 34726.8 hPa WNW 2.3 km/h 5.1 km/h 97 % 0 mm
01:07 -16.7 °C -17 °C 34726.8 hPa Calm   2.6 km/h 96 % 0 mm
01:13 -16.7 °C -16.9 °C 34726.8 hPa Calm   2.6 km/h 97 % 0 mm
01:19 -16.7 °C -16.9 °C 34726.8 hPa Calm   5.1 km/h 97 % 0 mm
01:25 -16.8 °C -17 °C 34726.8 hPa Calm   2.6 km/h 97 % 0 mm
01:31 -16.8 °C -17 °C 34726.8 hPa Calm     97 % 0 mm
01:37 -16.8 °C -17 °C 34726.8 hPa NNE 2.3 km/h 2.6 km/h 97 % 0 mm
01:43 -16.8 °C -17.1 °C 34726.8 hPa Calm     97 % 0 mm
01:49 -16.9 °C -17.1 °C 34726.8 hPa Calm     97 % 0 mm
01:55 -16.9 °C -17.2 °C 34726.8 hPa Calm     97 % 0 mm
02:01 -16.9 °C -17.2 °C 34726.8 hPa Calm     97 % 0 mm
02:07 -17 °C -17.2 °C 34726.8 hPa Calm     97 % 0 mm
02:13 -17 °C -17.2 °C 34726.8 hPa Calm     97 % 0 mm
02:19 -17 °C -17.2 °C 34726.8 hPa Calm     97 % 0 mm
02:25 -17 °C -17.2 °C 34726.8 hPa Calm     97 % 0 mm
02:31 -17.1 °C -17.3 °C 34726.8 hPa Calm     97 % 0 mm
02:37 -17.1 °C -17.3 °C 34740.4 hPa Calm     97 % 0 mm
02:43 -17.2 °C -17.4 °C 34740.4 hPa Calm     97 % 0 mm
02:49 -17.2 °C -17.4 °C 34726.8 hPa Calm     97 % 0 mm
02:55 -17.2 °C -17.4 °C 34726.8 hPa Calm     97 % 0 mm
03:01 -17.3 °C -17.5 °C 34726.8 hPa Calm     97 % 0 mm
03:07 -17.3 °C -17.6 °C 34726.8 hPa Calm     97 % 0 mm
03:13 -17.4 °C -17.6 °C 34726.8 hPa Calm     97 % 0 mm
03:19 -17.4 °C -17.6 °C 34726.8 hPa Calm     97 % 0 mm
03:25 -17.4 °C -17.7 °C 34726.8 hPa Calm     97 % 0 mm
03:31 -17.4 °C -17.7 °C 34726.8 hPa Calm     97 % 0 mm
03:37 -17.5 °C -17.7 °C 34726.8 hPa Calm     97 % 0 mm
03:43 -17.5 °C -17.7 °C 34726.8 hPa Calm     97 % 0 mm
03:49 -17.6 °C -17.8 °C 34726.8 hPa Calm     97 % 0 mm
03:55 -17.6 °C -17.8 °C 34726.8 hPa Calm     97 % 0 mm
04:01 -17.6 °C -17.8 °C 34716.7 hPa Calm     97 % 0 mm
04:07 -17.6 °C -17.8 °C 34726.8 hPa Calm     97 % 0 mm
04:13 -17.6 °C -17.8 °C 34716.7 hPa Calm     97 % 0 mm
04:19 -17.5 °C -17.7 °C 34726.8 hPa Calm     97 % 0 mm
04:26 -17.5 °C -17.7 °C 34726.8 hPa Calm     97 % 0 mm
04:32 -17.6 °C -17.8 °C 34726.8 hPa Calm     97 % 0 mm
04:38 -17.7 °C -17.9 °C 34716.7 hPa Calm     97 % 0 mm
04:44 -17.7 °C -17.9 °C 34716.7 hPa Calm     97 % 0 mm
04:50 -17.6 °C -17.8 °C 34726.8 hPa Calm     97 % 0 mm
04:56 -17.6 °C -17.8 °C 34716.7 hPa Calm     97 % 0 mm
05:02 -17.6 °C -17.8 °C 34726.8 hPa Calm     97 % 0 mm
05:08 -17.6 °C -17.8 °C 34716.7 hPa Calm     97 % 0 mm
05:14 -17.6 °C -17.8 °C 34716.7 hPa Calm     97 % 0 mm
05:20 -17.6 °C -17.8 °C 34716.7 hPa Calm     97 % 0 mm
05:26 -17.4 °C -17.7 °C 34716.7 hPa Calm     97 % 0 mm
05:32 -17.4 °C -17.7 °C 34716.7 hPa Calm     97 % 0 mm
05:38 -17.4 °C -17.6 °C 34716.7 hPa Calm     97 % 0 mm
05:44 -17.3 °C -17.6 °C 34703.1 hPa Calm     97 % 0 mm
05:50 -17.3 °C -17.4 °C 34703.1 hPa Calm   2.6 km/h 98 % 0 mm
05:56 -17.3 °C -17.4 °C 34703.1 hPa SW 5.1 km/h 5.1 km/h 98 % 0 mm
06:02 -17.2 °C -17.4 °C 34716.7 hPa Calm   5.1 km/h 98 % 0 mm
06:09 -17.3 °C -17.4 °C 34703.1 hPa Calm   2.6 km/h 98 % 0 mm
06:15 -17.3 °C -17.4 °C 34703.1 hPa Calm   2.6 km/h 98 % 0 mm
06:21 -17.3 °C -17.5 °C 34716.7 hPa Calm     97 % 0 mm
06:27 -17.2 °C -17.4 °C 34716.7 hPa Calm     97 % 0 mm
06:33 -17.2 °C -17.4 °C 34716.7 hPa Calm     97 % 0 mm
06:39 -17.2 °C -17.4 °C 34716.7 hPa Calm     97 % 0 mm
06:45 -17.2 °C -17.3 °C 34716.7 hPa Calm   2.6 km/h 98 % 0 mm
06:51 -17.2 °C -17.3 °C 34716.7 hPa Calm     98 % 7.62 mm
06:57 -17.1 °C -17.3 °C 34716.7 hPa Calm     98 % 7.62 mm
07:03 -17.1 °C -17.3 °C 34716.7 hPa Calm     98 % 7.62 mm
07:09 -17.1 °C -17.3 °C 34716.7 hPa Calm     98 % 7.62 mm
07:15 -17.1 °C -17.3 °C 34716.7 hPa Calm     98 % 7.62 mm
07:21 -17.1 °C -17.3 °C 34716.7 hPa Calm     97 % 7.62 mm
07:27 -17.1 °C -17.3 °C 34716.7 hPa Calm     98 % 7.62 mm
07:33 -17.1 °C -17.3 °C 34716.7 hPa Calm     98 % 7.62 mm
07:39 -17.1 °C -17.3 °C 34716.7 hPa Calm     97 % 7.62 mm
07:45 -17.1 °C -17.3 °C 34716.7 hPa Calm   2.6 km/h 97 % 7.62 mm
07:51 -17.1 °C -17.3 °C 34716.7 hPa Calm   2.6 km/h 97 % 0 mm
07:57 -17.1 °C -17.3 °C 34726.8 hPa SSW 2.3 km/h 2.6 km/h 97 % 0 mm
08:03 -17.1 °C -17.3 °C 34716.7 hPa South 2.3 km/h 5.1 km/h 97 % 0 mm
08:09 -17.2 °C -17.4 °C 34716.7 hPa Calm   2.6 km/h 97 % 0 mm
08:15 -17.1 °C -17.3 °C 34716.7 hPa Calm   2.6 km/h 97 % 0 mm
08:21 -17.2 °C -17.4 °C 34716.7 hPa Calm     97 % 0 mm
08:27 -17.1 °C -17.3 °C 34716.7 hPa Calm   2.6 km/h 97 % 0 mm
08:33 -17.1 °C -17.3 °C 34716.7 hPa Calm     98 % 0 mm
08:40 -17.1 °C -17.2 °C 34716.7 hPa Calm     98 % 0 mm
08:46 -17.1 °C -17.2 °C 34716.7 hPa Calm   2.6 km/h 98 % 0 mm
08:52 -17.1 °C -17.2 °C 34716.7 hPa Calm   2.6 km/h 98 % 0 mm
08:58 -17.1 °C -17.2 °C 34716.7 hPa Calm   2.6 km/h 98 % 0 mm
09:04 -17.1 °C -17.2 °C 34716.7 hPa Calm   5.1 km/h 98 % 0 mm
09:10 -17 °C -17.2 °C 34716.7 hPa SW 2.3 km/h 2.6 km/h 98 % 0 mm
09:16 -17 °C -17.2 °C 34703.1 hPa SW 2.3 km/h 5.1 km/h 98 % 0 mm
09:22 -17 °C -17.2 °C 34716.7 hPa SW 5.1 km/h 7.7 km/h 98 % 0 mm
09:28 -17 °C -17.2 °C 34703.1 hPa Calm   5.1 km/h 98 % 0 mm
09:34 -16.9 °C -17.1 °C 34703.1 hPa Calm   2.6 km/h 98 % 0 mm
09:42 -17 °C -17.2 °C 34703.1 hPa Calm   7.7 km/h 97 % 0 mm
09:48 -17 °C -17.2 °C 34703.1 hPa Calm   5.1 km/h 97 % 0 mm
09:54 -16.9 °C -17.2 °C 34703.1 hPa SSW 2.3 km/h 5.1 km/h 97 % 0 mm
10:00 -16.9 °C -17.1 °C 34703.1 hPa South 2.3 km/h 5.1 km/h 98 % 0 mm
10:06 -16.8 °C -17 °C 34703.1 hPa SW 2.3 km/h 7.7 km/h 98 % 0 mm
10:08 -16.8 °C -17 °C 34703.1 hPa SE 2.3 km/h 5.1 km/h 98 % 0 mm
10:12 -16.8 °C -17 °C 34703.1 hPa SSW 2.3 km/h 2.6 km/h 98 % 0 mm
10:18 -16.8 °C -16.9 °C 34703.1 hPa SSW 5.1 km/h 7.7 km/h 98 % 0 mm
10:24 -16.8 °C -16.9 °C 34703.1 hPa SE 5.1 km/h 7.7 km/h 98 % 0 mm
10:30 -16.8 °C -17.1 °C 34703.1 hPa SW 7.6 km/h 7.7 km/h 97 % 0 mm
10:36 -16.9 °C -17.1 °C 34703.1 hPa SW 7.6 km/h 10.3 km/h 97 % 0 mm
10:42 -16.9 °C -17.1 °C 34703.1 hPa SSW 2.3 km/h 5.1 km/h 97 % 0 mm
10:48 -16.8 °C -17.1 °C 34703.1 hPa SSE 2.3 km/h 5.1 km/h 97 % 0 mm
10:54 -16.8 °C -17.1 °C 34703.1 hPa Calm   5.1 km/h 97 % 0 mm
11:00 -16.8 °C -17.1 °C 34703.1 hPa SE 2.3 km/h 7.7 km/h 97 % 0 mm
11:06 -16.8 °C -17 °C 34703.1 hPa Calm   2.6 km/h 97 % 0 mm
11:12 -16.7 °C -16.9 °C 34703.1 hPa Calm   2.6 km/h 97 % 0 mm
11:18 -16.6 °C -16.8 °C 34703.1 hPa WSW 2.3 km/h 10.3 km/h 98 % 0 mm
11:24 -16.6 °C -16.7 °C 34716.7 hPa SSW 2.3 km/h 2.6 km/h 98 % 0 mm
11:30 -16.6 °C -16.7 °C 34703.1 hPa Calm   7.7 km/h 98 % 0 mm
11:36 -16.5 °C -16.7 °C 34703.1 hPa Calm   5.1 km/h 98 % 0 mm
11:42 -16.4 °C -16.6 °C 34703.1 hPa Calm   5.1 km/h 98 % 0 mm
11:48 -16.3 °C -16.4 °C 34703.1 hPa SSW 2.3 km/h 5.1 km/h 98 % 0 mm
11:54 -16.3 °C -16.4 °C 34703.1 hPa Calm   2.6 km/h 98 % 0 mm
12:00 -16.3 °C -16.4 °C 34703.1 hPa Calm   2.6 km/h 98 % 0 mm
12:06 -16.2 °C -16.3 °C 34703.1 hPa Calm     98 % 0 mm
12:12 -16.1 °C -16.3 °C 34703.1 hPa Calm   2.6 km/h 98 % 0 mm
12:18 -16.1 °C -16.2 °C 34703.1 hPa Calm   2.6 km/h 98 % 0 mm
12:24 -16 °C -16.2 °C 34703.1 hPa SW 2.3 km/h 5.1 km/h 98 % 0 mm
12:30 -15.9 °C -16.1 °C 34703.1 hPa SSE 2.3 km/h 7.7 km/h 98 % 0 mm
12:36 -15.9 °C -16.1 °C 34703.1 hPa Calm   2.6 km/h 98 % 0 mm
12:42 -15.9 °C -16.1 °C 34693 hPa ESE 2.3 km/h 5.1 km/h 98 % 0 mm
12:48 -15.8 °C -15.9 °C 34693 hPa SW 2.3 km/h 2.6 km/h 98 % 0 mm
12:54 -15.8 °C -15.9 °C 34693 hPa Calm   2.6 km/h 98 % 0 mm
13:00 -15.8 °C -15.9 °C 34693 hPa SSE 2.3 km/h 5.1 km/h 98 % 0 mm
13:06 -15.8 °C -15.9 °C 34682.8 hPa Calm   5.1 km/h 98 % 0 mm
13:12 -15.7 °C -15.9 °C 34682.8 hPa Calm     98 % 0 mm
13:18 -15.7 °C -15.8 °C 34682.8 hPa SW 2.3 km/h 2.6 km/h 98 % 0 mm
13:24 -15.7 °C -15.9 °C 34682.8 hPa WSW 2.3 km/h 5.1 km/h 97 % 0 mm
13:30 -15.7 °C -15.9 °C 34669.3 hPa Calm   10.3 km/h 97 % 0 mm
13:36 -15.7 °C -15.9 °C 34682.8 hPa WSW 2.3 km/h 5.1 km/h 97 % 0 mm
13:42 -15.7 °C -15.9 °C 34669.3 hPa Calm     97 % 0 mm
13:48 -15.7 °C -15.9 °C 34669.3 hPa Calm     97 % 0 mm
13:54 -15.6 °C -15.8 °C 34669.3 hPa Calm     98 % 0 mm
14:01 -15.6 °C -15.8 °C 34669.3 hPa Calm     98 % 0 mm
14:07 -15.6 °C -15.8 °C 34669.3 hPa Calm     97 % 0 mm
14:13 -15.6 °C -15.8 °C 34669.3 hPa Calm     97 % 0 mm
14:19 -15.6 °C -15.8 °C 34669.3 hPa Calm     97 % 0 mm
14:25 -15.5 °C -15.7 °C 34669.3 hPa ENE 5.1 km/h 10.3 km/h 98 % 0 mm
14:31 -15.6 °C -15.7 °C 34669.3 hPa Calm   5.1 km/h 98 % 0 mm
14:37 -15.6 °C -15.7 °C 34659.1 hPa Calm   2.6 km/h 98 % 0 mm
14:43 -15.5 °C -15.7 °C 34659.1 hPa Calm     98 % 0 mm
14:49 -15.5 °C -15.7 °C 34645.6 hPa Calm   2.6 km/h 98 % 0 mm
14:55 -15.6 °C -15.8 °C 34645.6 hPa Calm   5.1 km/h 97 % 0 mm
15:01 -15.4 °C -15.6 °C 34645.6 hPa East 5.1 km/h 5.1 km/h 98 % 0 mm
15:07 -15.4 °C -15.7 °C 34645.6 hPa East 7.6 km/h 7.7 km/h 97 % 0 mm
15:13 -15.4 °C -15.7 °C 34645.6 hPa SSE 2.3 km/h 7.7 km/h 97 % 0 mm
15:19 -15.5 °C -15.7 °C 34645.6 hPa SE 2.3 km/h 5.1 km/h 97 % 0 mm
15:25 -15.5 °C -15.7 °C 34645.6 hPa Calm   2.6 km/h 97 % 0 mm
15:31 -15.5 °C -15.7 °C 34645.6 hPa SSW 2.3 km/h 2.6 km/h 97 % 0 mm
15:37 -15.6 °C -15.8 °C 34645.6 hPa Calm   2.6 km/h 97 % 0 mm
15:43 -15.5 °C -15.7 °C 34645.6 hPa ENE 2.3 km/h 7.7 km/h 97 % 0 mm
15:49 -15.5 °C -15.7 °C 34645.6 hPa NE 2.3 km/h 5.1 km/h 97 % 0 mm
15:55 -15.5 °C -15.7 °C 34645.6 hPa East 5.1 km/h 10.3 km/h 97 % 0 mm
16:01 -15.5 °C -15.7 °C 34645.6 hPa NE 7.6 km/h 10.3 km/h 97 % 0 mm
16:07 -15.6 °C -15.8 °C 34645.6 hPa Calm   5.1 km/h 97 % 0 mm
16:13 -15.6 °C -15.8 °C 34645.6 hPa Calm     97 % 0 mm
16:19 -15.6 °C -15.8 °C 34645.6 hPa Calm     97 % 0 mm
16:25 -15.5 °C -15.7 °C 34645.6 hPa Calm   2.6 km/h 97 % 0 mm
16:31 -15.5 °C -15.8 °C 34645.6 hPa Calm   7.7 km/h 96 % 0 mm
16:37 -15.5 °C -15.8 °C 34645.6 hPa NE 7.6 km/h 7.7 km/h 96 % 0 mm
16:43 -15.6 °C -15.9 °C 34645.6 hPa ENE 10.3 km/h 10.3 km/h 96 % 0 mm
16:49 -15.6 °C -15.9 °C 34645.6 hPa Calm     96 % 0 mm
16:55 -15.6 °C -15.9 °C 34645.6 hPa Calm   5.1 km/h 96 % 0 mm
17:02 -15.6 °C -15.9 °C 34645.6 hPa ENE 5.1 km/h 5.1 km/h 96 % 0 mm
17:08 -15.6 °C -16 °C 34645.6 hPa NE 7.6 km/h 10.3 km/h 95 % 0 mm
17:14 -15.6 °C -16 °C 34645.6 hPa North 5.1 km/h 7.7 km/h 95 % 0 mm
17:20 -15.7 °C -16.1 °C 34645.6 hPa Calm   5.1 km/h 95 % 0 mm
17:26 -15.8 °C -16.3 °C 34645.6 hPa Calm   2.6 km/h 94 % 0 mm
17:32 -15.7 °C -16.1 °C 34635.4 hPa NNW 2.3 km/h 2.6 km/h 95 % 0 mm
17:38 -15.7 °C -16.1 °C 34635.4 hPa Calm   2.6 km/h 95 % 0 mm
17:44 -15.7 °C -16.2 °C 34635.4 hPa Calm   2.6 km/h 94 % 0 mm
17:50 -15.7 °C -16.2 °C 34635.4 hPa North 2.3 km/h 2.6 km/h 94 % 0 mm
17:56 -15.8 °C -16.3 °C 34635.4 hPa North 2.3 km/h 5.1 km/h 94 % 0 mm
18:02 -15.8 °C -16.3 °C 34635.4 hPa North 5.1 km/h 5.1 km/h 94 % 0 mm
18:08 -15.9 °C -16.4 °C 34635.4 hPa North 5.1 km/h 5.1 km/h 94 % 0 mm
18:14 -16 °C -16.5 °C 34635.4 hPa NNW 5.1 km/h 5.1 km/h 94 % 0 mm
18:20 -16.1 °C -16.6 °C 34635.4 hPa NNW 2.3 km/h 7.7 km/h 94 % 0 mm
18:26 -16.2 °C -16.6 °C 34635.4 hPa North 2.3 km/h 2.6 km/h 95 % 0 mm
18:32 -16.2 °C -16.6 °C 34635.4 hPa NNW 5.1 km/h 7.7 km/h 95 % 0 mm
18:38 -16.3 °C -16.7 °C 34635.4 hPa Calm   2.6 km/h 95 % 0 mm
18:44 -16.3 °C -16.7 °C 34635.4 hPa NNW 2.3 km/h 5.1 km/h 95 % 0 mm
18:50 -16.4 °C -16.8 °C 34635.4 hPa NNW 2.3 km/h 5.1 km/h 95 % 0 mm
18:56 -16.4 °C -16.8 °C 34625.2 hPa Calm   2.6 km/h 95 % 0 mm
19:02 -16.5 °C -16.9 °C 34625.2 hPa NNW 2.3 km/h 2.6 km/h 95 % 0 mm
19:08 -16.6 °C -16.9 °C 34625.2 hPa NNW 2.3 km/h 2.6 km/h 95 % 0 mm
19:14 -16.6 °C -16.9 °C 34625.2 hPa NW 2.3 km/h 2.6 km/h 96 % 0 mm
19:20 -16.6 °C -17 °C 34625.2 hPa WNW 2.3 km/h 2.6 km/h 95 % 0 mm
19:26 -16.7 °C -17 °C 34625.2 hPa NW 2.3 km/h 5.1 km/h 96 % 0 mm
19:32 -16.6 °C -16.9 °C 34625.2 hPa Calm   2.6 km/h 96 % 0 mm
19:38 -16.7 °C -17.1 °C 34625.2 hPa Calm   2.6 km/h 96 % 0 mm
19:44 -16.8 °C -17.1 °C 34625.2 hPa Calm     96 % 0 mm
19:50 -16.9 °C -17.2 °C 34625.2 hPa Calm     96 % 0 mm
19:56 -17.1 °C -17.4 °C 34625.2 hPa Calm     96 % 0 mm
20:03 -16.9 °C -17.1 °C 34625.2 hPa Calm     97 % 0 mm
20:09 -16.9 °C -17.1 °C 34625.2 hPa Calm     97 % 0 mm
20:15 -16.9 °C -17.2 °C 34625.2 hPa Calm     96 % 0 mm
20:21 -17 °C -17.3 °C 34625.2 hPa Calm     96 % 0 mm
20:27 -17 °C -17.3 °C 34625.2 hPa Calm     96 % 0 mm
20:33 -17.1 °C -17.4 °C 34625.2 hPa Calm     96 % 0 mm
20:39 -17.1 °C -17.4 °C 34611.7 hPa Calm     96 % 0 mm
20:45 -17.2 °C -17.5 °C 34611.7 hPa Calm     96 % 0 mm
20:51 -17.2 °C -17.6 °C 34611.7 hPa Calm     96 % 0 mm
20:57 -17.2 °C -17.4 °C 34611.7 hPa Calm     97 % 0 mm
21:03 -17.3 °C -17.6 °C 34611.7 hPa Calm     96 % 0 mm
21:09 -17.3 °C -17.6 °C 34611.7 hPa Calm     97 % 0 mm
21:15 -17.3 °C -17.6 °C 34611.7 hPa Calm     97 % 0 mm
21:21 -17.6 °C -17.9 °C 34611.7 hPa Calm     96 % 0 mm
21:27 -17.7 °C -18.1 °C 34611.7 hPa Calm     96 % 0 mm
21:33 -17.8 °C -18.2 °C 34601.5 hPa Calm     96 % 0 mm
21:39 -17.8 °C -18.1 °C 34601.5 hPa Calm     97 % 0 mm
21:45 -17.8 °C -18 °C 34601.5 hPa Calm     97 % 0 mm
21:51 -17.7 °C -17.9 °C 34601.5 hPa Calm     97 % 0 mm
21:57 -17.9 °C -18.2 °C 34611.7 hPa Calm     96 % 0 mm
22:03 -17.9 °C -18.1 °C 34601.5 hPa Calm     97 % 0 mm
22:09 -17.7 °C -17.9 °C 34601.5 hPa Calm     97 % 0 mm
22:15 -17.9 °C -18.3 °C 34611.7 hPa Calm     96 % 0 mm
22:21 -18 °C -18.2 °C 34611.7 hPa Calm     97 % 0 mm
22:27 -18 °C -18.2 °C 34601.5 hPa Calm     97 % 0 mm
22:33 -17.9 °C -18.2 °C 34601.5 hPa Calm     97 % 0 mm
22:39 -17.9 °C -18.1 °C 34601.5 hPa Calm     97 % 0 mm
22:45 -18 °C -18.2 °C 34601.5 hPa Calm     97 % 0 mm
22:51 -18 °C -18.2 °C 34601.5 hPa Calm     97 % 0 mm
22:57 -18.1 °C -18.3 °C 34591.4 hPa Calm     97 % 0 mm
23:03 -18.1 °C -18.3 °C 34591.4 hPa Calm     97 % 0 mm
23:09 -18.1 °C -18.3 °C 34591.4 hPa Calm     97 % 0 mm
23:15 -18.1 °C -18.3 °C 34591.4 hPa Calm     97 % 0 mm
23:21 -18.1 °C -18.3 °C 34601.5 hPa East 5.1 km/h 10.3 km/h 97 % 0 mm
23:27 -18.2 °C -18.4 °C 34601.5 hPa SE 2.3 km/h 5.1 km/h 97 % 0 mm
23:33 -18.2 °C -18.4 °C 34601.5 hPa Calm   5.1 km/h 97 % 0 mm
23:39 -18.2 °C -18.4 °C 34601.5 hPa Calm     97 % 0 mm
23:45 -18.2 °C -18.4 °C 34601.5 hPa Calm     97 % 0 mm
23:51 -18.1 °C -18.3 °C 34601.5 hPa Calm     97 % 0 mm
23:57 -18.1 °C -18.3 °C 34591.4 hPa Calm     97 % 0 mm
Meteo18
Compliments of Weather Underground - 4 mb

Script developed by  Jim McMurry - jmcmurry@mwt.net Adapted for the template by  Wim van der Kuil - Leuven-Template.eu

You find our weather info also at:

European Weather Network

Weather Underground

Equipment we use:

Weather-station
Davis Vue

Weather-program
Meteobridge

Weather-server
Raspberry PI 2 B+

Provider
1 and 1

Davis Vue

Meteobridge

Raspberry PI 2 B+

1 and 1